sensor_id;sensor_type;location;lat;lon;timestamp;P1;durP1;ratioP1;P2;durP2;ratioP2
23155;SDS011;11746;50.876;4.246;2022-11-20T00:00:53;39.58;;;23.58;;
23155;SDS011;11746;50.876;4.246;2022-11-20T00:03:20;40.30;;;23.90;;
23155;SDS011;11746;50.876;4.246;2022-11-20T00:05:48;40.83;;;23.27;;
23155;SDS011;11746;50.876;4.246;2022-11-20T00:08:16;41.10;;;22.80;;
23155;SDS011;11746;50.876;4.246;2022-11-20T00:10:45;36.45;;;21.75;;
23155;SDS011;11746;50.876;4.246;2022-11-20T00:13:10;41.65;;;23.52;;
23155;SDS011;11746;50.876;4.246;2022-11-20T00:15:36;37.47;;;23.08;;
23155;SDS011;11746;50.876;4.246;2022-11-20T00:18:01;35.75;;;22.30;;
23155;SDS011;11746;50.876;4.246;2022-11-20T00:20:32;36.58;;;22.48;;
23155;SDS011;11746;50.876;4.246;2022-11-20T00:22:59;37.80;;;21.55;;
23155;SDS011;11746;50.876;4.246;2022-11-20T00:25:25;39.00;;;22.55;;
23155;SDS011;11746;50.876;4.246;2022-11-20T00:27:51;35.03;;;21.35;;
23155;SDS011;11746;50.876;4.246;2022-11-20T00:30:17;38.00;;;22.63;;
23155;SDS011;11746;50.876;4.246;2022-11-20T00:32:43;38.30;;;22.55;;
23155;SDS011;11746;50.876;4.246;2022-11-20T00:35:09;37.70;;;22.33;;
23155;SDS011;11746;50.876;4.246;2022-11-20T00:37:35;38.58;;;22.70;;
23155;SDS011;11746;50.876;4.246;2022-11-20T00:40:00;42.03;;;24.02;;
23155;SDS011;11746;50.876;4.246;2022-11-20T00:42:26;41.95;;;23.50;;
23155;SDS011;11746;50.876;4.246;2022-11-20T00:44:52;44.05;;;23.23;;
23155;SDS011;11746;50.876;4.246;2022-11-20T00:47:17;42.47;;;24.02;;
23155;SDS011;11746;50.876;4.246;2022-11-20T00:49:43;40.47;;;22.65;;
23155;SDS011;11746;50.876;4.246;2022-11-20T00:52:09;40.55;;;22.83;;
23155;SDS011;11746;50.876;4.246;2022-11-20T00:54:37;40.55;;;23.40;;
23155;SDS011;11746;50.876;4.246;2022-11-20T00:57:03;39.13;;;23.70;;
23155;SDS011;11746;50.876;4.246;2022-11-20T00:59:29;40.13;;;22.45;;
23155;SDS011;11746;50.876;4.246;2022-11-20T01:01:55;42.83;;;24.05;;
23155;SDS011;11746;50.876;4.246;2022-11-20T01:04:21;40.42;;;23.52;;
23155;SDS011;11746;50.876;4.246;2022-11-20T01:06:49;43.17;;;23.83;;
23155;SDS011;11746;50.876;4.246;2022-11-20T01:09:15;40.13;;;23.30;;
23155;SDS011;11746;50.876;4.246;2022-11-20T01:11:41;39.03;;;22.75;;
23155;SDS011;11746;50.876;4.246;2022-11-20T01:14:13;41.53;;;22.55;;
23155;SDS011;11746;50.876;4.246;2022-11-20T01:16:47;42.95;;;22.83;;
23155;SDS011;11746;50.876;4.246;2022-11-20T01:19:22;40.63;;;23.38;;
23155;SDS011;11746;50.876;4.246;2022-11-20T01:21:53;42.97;;;23.55;;
23155;SDS011;11746;50.876;4.246;2022-11-20T01:24:24;38.00;;;23.15;;
23155;SDS011;11746;50.876;4.246;2022-11-20T01:26:50;40.60;;;23.17;;
23155;SDS011;11746;50.876;4.246;2022-11-20T01:29:17;37.47;;;22.60;;
23155;SDS011;11746;50.876;4.246;2022-11-20T01:31:45;37.55;;;23.25;;
23155;SDS011;11746;50.876;4.246;2022-11-20T01:34:13;37.20;;;22.50;;
23155;SDS011;11746;50.876;4.246;2022-11-20T01:36:41;39.15;;;23.05;;
23155;SDS011;11746;50.876;4.246;2022-11-20T01:39:15;37.05;;;21.40;;
23155;SDS011;11746;50.876;4.246;2022-11-20T01:41:45;38.55;;;22.63;;
23155;SDS011;11746;50.876;4.246;2022-11-20T01:44:51;34.63;;;21.55;;
23155;SDS011;11746;50.876;4.246;2022-11-20T01:47:38;41.08;;;23.30;;
23155;SDS011;11746;50.876;4.246;2022-11-20T01:52:52;35.00;;;22.23;;
23155;SDS011;11746;50.876;4.246;2022-11-20T01:55:31;37.45;;;21.90;;
23155;SDS011;11746;50.876;4.246;2022-11-20T01:57:59;38.00;;;22.92;;
23155;SDS011;11746;50.876;4.246;2022-11-20T02:00:27;42.38;;;23.58;;
23155;SDS011;11746;50.876;4.246;2022-11-20T02:02:55;41.72;;;23.15;;
23155;SDS011;11746;50.876;4.246;2022-11-20T02:08:03;39.72;;;22.73;;
23155;SDS011;11746;50.876;4.246;2022-11-20T02:10:30;40.80;;;23.00;;
23155;SDS011;11746;50.876;4.246;2022-11-20T02:12:57;39.88;;;24.13;;
23155;SDS011;11746;50.876;4.246;2022-11-20T02:16:03;36.03;;;21.30;;
23155;SDS011;11746;50.876;4.246;2022-11-20T02:18:32;42.50;;;24.65;;
23155;SDS011;11746;50.876;4.246;2022-11-20T02:21:04;39.25;;;22.95;;
23155;SDS011;11746;50.876;4.246;2022-11-20T02:24:20;41.22;;;24.00;;
23155;SDS011;11746;50.876;4.246;2022-11-20T02:26:26;41.47;;;24.08;;
23155;SDS011;11746;50.876;4.246;2022-11-20T02:28:57;41.22;;;24.35;;
23155;SDS011;11746;50.876;4.246;2022-11-20T02:31:25;44.92;;;24.50;;
23155;SDS011;11746;50.876;4.246;2022-11-20T02:33:55;46.15;;;24.73;;
23155;SDS011;11746;50.876;4.246;2022-11-20T02:36:24;50.25;;;25.80;;
23155;SDS011;11746;50.876;4.246;2022-11-20T02:38:55;44.25;;;24.55;;
23155;SDS011;11746;50.876;4.246;2022-11-20T02:41:20;45.63;;;25.13;;
23155;SDS011;11746;50.876;4.246;2022-11-20T02:43:47;41.33;;;24.13;;
23155;SDS011;11746;50.876;4.246;2022-11-20T02:46:15;48.28;;;24.33;;
23155;SDS011;11746;50.876;4.246;2022-11-20T02:48:40;46.58;;;24.95;;
23155;SDS011;11746;50.876;4.246;2022-11-20T02:51:06;45.40;;;25.08;;
23155;SDS011;11746;50.876;4.246;2022-11-20T02:53:35;46.80;;;24.25;;
23155;SDS011;11746;50.876;4.246;2022-11-20T02:56:00;44.00;;;24.75;;
23155;SDS011;11746;50.876;4.246;2022-11-20T02:58:26;45.30;;;25.13;;
23155;SDS011;11746;50.876;4.246;2022-11-20T03:00:52;44.20;;;24.55;;
23155;SDS011;11746;50.876;4.246;2022-11-20T03:03:17;46.70;;;24.65;;
23155;SDS011;11746;50.876;4.246;2022-11-20T03:05:45;46.70;;;25.83;;
23155;SDS011;11746;50.876;4.246;2022-11-20T03:08:16;49.15;;;24.73;;
23155;SDS011;11746;50.876;4.246;2022-11-20T03:10:44;45.25;;;24.58;;
23155;SDS011;11746;50.876;4.246;2022-11-20T03:13:12;50.88;;;24.88;;
23155;SDS011;11746;50.876;4.246;2022-11-20T03:15:38;45.67;;;24.70;;
23155;SDS011;11746;50.876;4.246;2022-11-20T03:18:04;50.75;;;25.58;;
23155;SDS011;11746;50.876;4.246;2022-11-20T03:20:31;43.58;;;24.42;;
23155;SDS011;11746;50.876;4.246;2022-11-20T03:22:58;47.55;;;25.23;;
23155;SDS011;11746;50.876;4.246;2022-11-20T03:25:24;45.97;;;24.27;;
23155;SDS011;11746;50.876;4.246;2022-11-20T03:27:53;47.63;;;24.33;;
23155;SDS011;11746;50.876;4.246;2022-11-20T03:30:22;48.50;;;24.73;;
23155;SDS011;11746;50.876;4.246;2022-11-20T03:32:48;46.53;;;24.10;;
23155;SDS011;11746;50.876;4.246;2022-11-20T03:35:14;46.28;;;24.10;;
23155;SDS011;11746;50.876;4.246;2022-11-20T03:37:39;46.72;;;24.60;;
23155;SDS011;11746;50.876;4.246;2022-11-20T03:40:06;47.05;;;24.48;;
23155;SDS011;11746;50.876;4.246;2022-11-20T03:42:32;44.35;;;23.77;;
23155;SDS011;11746;50.876;4.246;2022-11-20T03:45:10;46.63;;;23.85;;
23155;SDS011;11746;50.876;4.246;2022-11-20T03:47:36;45.97;;;24.42;;
23155;SDS011;11746;50.876;4.246;2022-11-20T03:50:02;49.42;;;25.17;;
23155;SDS011;11746;50.876;4.246;2022-11-20T03:52:29;42.35;;;22.90;;
23155;SDS011;11746;50.876;4.246;2022-11-20T03:54:57;43.17;;;24.00;;
23155;SDS011;11746;50.876;4.246;2022-11-20T03:57:26;47.17;;;24.13;;
23155;SDS011;11746;50.876;4.246;2022-11-20T03:59:52;45.00;;;23.45;;
23155;SDS011;11746;50.876;4.246;2022-11-20T04:02:17;45.72;;;24.25;;
23155;SDS011;11746;50.876;4.246;2022-11-20T04:04:44;45.67;;;24.20;;
23155;SDS011;11746;50.876;4.246;2022-11-20T04:07:10;44.95;;;24.13;;
23155;SDS011;11746;50.876;4.246;2022-11-20T04:09:38;40.63;;;23.42;;
23155;SDS011;11746;50.876;4.246;2022-11-20T04:12:04;38.95;;;22.42;;
23155;SDS011;11746;50.876;4.246;2022-11-20T04:14:30;44.53;;;24.02;;
23155;SDS011;11746;50.876;4.246;2022-11-20T04:16:55;42.92;;;23.52;;
23155;SDS011;11746;50.876;4.246;2022-11-20T04:19:21;45.10;;;22.70;;
23155;SDS011;11746;50.876;4.246;2022-11-20T04:21:49;47.40;;;23.77;;
23155;SDS011;11746;50.876;4.246;2022-11-20T04:24:17;40.33;;;23.25;;
23155;SDS011;11746;50.876;4.246;2022-11-20T04:26:43;46.83;;;23.45;;
23155;SDS011;11746;50.876;4.246;2022-11-20T04:29:10;44.45;;;23.80;;
23155;SDS011;11746;50.876;4.246;2022-11-20T04:31:39;42.90;;;23.38;;
23155;SDS011;11746;50.876;4.246;2022-11-20T04:34:06;42.80;;;22.58;;
23155;SDS011;11746;50.876;4.246;2022-11-20T04:36:33;42.75;;;23.77;;
23155;SDS011;11746;50.876;4.246;2022-11-20T04:39:00;45.35;;;22.70;;
23155;SDS011;11746;50.876;4.246;2022-11-20T04:41:29;45.85;;;22.63;;
23155;SDS011;11746;50.876;4.246;2022-11-20T04:43:59;45.03;;;22.98;;
23155;SDS011;11746;50.876;4.246;2022-11-20T04:46:39;47.22;;;23.23;;
23155;SDS011;11746;50.876;4.246;2022-11-20T04:49:10;44.25;;;23.42;;
23155;SDS011;11746;50.876;4.246;2022-11-20T04:51:37;45.60;;;23.98;;
23155;SDS011;11746;50.876;4.246;2022-11-20T04:54:05;49.78;;;23.38;;
23155;SDS011;11746;50.876;4.246;2022-11-20T04:56:31;47.42;;;23.08;;
23155;SDS011;11746;50.876;4.246;2022-11-20T04:58:59;50.70;;;23.95;;
23155;SDS011;11746;50.876;4.246;2022-11-20T05:01:26;46.13;;;23.98;;
23155;SDS011;11746;50.876;4.246;2022-11-20T05:03:52;47.75;;;24.58;;
23155;SDS011;11746;50.876;4.246;2022-11-20T05:06:19;44.63;;;23.45;;
23155;SDS011;11746;50.876;4.246;2022-11-20T05:08:46;50.75;;;24.02;;
23155;SDS011;11746;50.876;4.246;2022-11-20T05:11:12;48.53;;;24.38;;
23155;SDS011;11746;50.876;4.246;2022-11-20T05:13:40;49.45;;;24.35;;
23155;SDS011;11746;50.876;4.246;2022-11-20T05:18:36;60.35;;;25.88;;
23155;SDS011;11746;50.876;4.246;2022-11-20T05:21:02;51.28;;;25.17;;
23155;SDS011;11746;50.876;4.246;2022-11-20T05:23:31;49.92;;;24.73;;
23155;SDS011;11746;50.876;4.246;2022-11-20T05:26:04;50.58;;;24.35;;
23155;SDS011;11746;50.876;4.246;2022-11-20T05:28:34;57.47;;;25.52;;
23155;SDS011;11746;50.876;4.246;2022-11-20T05:31:03;50.95;;;25.42;;
23155;SDS011;11746;50.876;4.246;2022-11-20T05:33:36;55.22;;;27.30;;
23155;SDS011;11746;50.876;4.246;2022-11-20T05:36:04;57.83;;;26.17;;
23155;SDS011;11746;50.876;4.246;2022-11-20T05:38:33;55.78;;;25.50;;
23155;SDS011;11746;50.876;4.246;2022-11-20T05:43:33;53.25;;;25.58;;
23155;SDS011;11746;50.876;4.246;2022-11-20T05:46:00;55.15;;;25.98;;
23155;SDS011;11746;50.876;4.246;2022-11-20T05:48:29;56.58;;;26.33;;
23155;SDS011;11746;50.876;4.246;2022-11-20T05:50:57;64.72;;;27.35;;
23155;SDS011;11746;50.876;4.246;2022-11-20T05:53:24;60.13;;;27.13;;
23155;SDS011;11746;50.876;4.246;2022-11-20T05:55:57;63.28;;;27.63;;
23155;SDS011;11746;50.876;4.246;2022-11-20T05:58:23;59.47;;;26.90;;
23155;SDS011;11746;50.876;4.246;2022-11-20T06:00:52;61.97;;;27.13;;
23155;SDS011;11746;50.876;4.246;2022-11-20T06:03:20;61.13;;;26.48;;
23155;SDS011;11746;50.876;4.246;2022-11-20T06:05:46;65.72;;;28.20;;
23155;SDS011;11746;50.876;4.246;2022-11-20T06:08:15;58.67;;;26.50;;
23155;SDS011;11746;50.876;4.246;2022-11-20T06:10:41;61.17;;;27.65;;
23155;SDS011;11746;50.876;4.246;2022-11-20T06:13:07;59.83;;;26.23;;
23155;SDS011;11746;50.876;4.246;2022-11-20T06:15:35;63.92;;;28.92;;
23155;SDS011;11746;50.876;4.246;2022-11-20T06:18:05;68.25;;;27.00;;
23155;SDS011;11746;50.876;4.246;2022-11-20T06:20:31;67.95;;;29.70;;
23155;SDS011;11746;50.876;4.246;2022-11-20T06:22:59;68.82;;;27.38;;
23155;SDS011;11746;50.876;4.246;2022-11-20T06:25:24;62.25;;;27.35;;
23155;SDS011;11746;50.876;4.246;2022-11-20T06:27:50;64.20;;;28.98;;
23155;SDS011;11746;50.876;4.246;2022-11-20T06:30:16;65.55;;;28.80;;
23155;SDS011;11746;50.876;4.246;2022-11-20T06:32:42;64.90;;;27.67;;
23155;SDS011;11746;50.876;4.246;2022-11-20T06:35:08;62.35;;;27.65;;
23155;SDS011;11746;50.876;4.246;2022-11-20T06:37:34;60.13;;;27.85;;
23155;SDS011;11746;50.876;4.246;2022-11-20T06:40:00;61.22;;;26.40;;
23155;SDS011;11746;50.876;4.246;2022-11-20T06:42:26;63.00;;;25.70;;
23155;SDS011;11746;50.876;4.246;2022-11-20T06:44:52;69.57;;;28.20;;
23155;SDS011;11746;50.876;4.246;2022-11-20T06:47:20;66.57;;;28.17;;
23155;SDS011;11746;50.876;4.246;2022-11-20T06:49:45;62.85;;;27.13;;
23155;SDS011;11746;50.876;4.246;2022-11-20T06:52:11;63.70;;;27.42;;
23155;SDS011;11746;50.876;4.246;2022-11-20T06:54:39;61.75;;;26.25;;
23155;SDS011;11746;50.876;4.246;2022-11-20T06:57:05;56.30;;;26.55;;
23155;SDS011;11746;50.876;4.246;2022-11-20T06:59:31;56.97;;;26.02;;
23155;SDS011;11746;50.876;4.246;2022-11-20T07:01:57;59.45;;;26.02;;
23155;SDS011;11746;50.876;4.246;2022-11-20T07:04:22;60.40;;;25.77;;
23155;SDS011;11746;50.876;4.246;2022-11-20T07:06:50;58.70;;;26.13;;
23155;SDS011;11746;50.876;4.246;2022-11-20T07:09:16;53.67;;;26.52;;
23155;SDS011;11746;50.876;4.246;2022-11-20T07:11:44;52.63;;;23.02;;
23155;SDS011;11746;50.876;4.246;2022-11-20T07:14:10;55.70;;;25.20;;
23155;SDS011;11746;50.876;4.246;2022-11-20T07:16:38;53.17;;;24.42;;
23155;SDS011;11746;50.876;4.246;2022-11-20T07:19:04;53.78;;;25.42;;
23155;SDS011;11746;50.876;4.246;2022-11-20T07:21:29;56.83;;;24.88;;
23155;SDS011;11746;50.876;4.246;2022-11-20T07:23:55;54.22;;;25.33;;
23155;SDS011;11746;50.876;4.246;2022-11-20T07:26:21;44.90;;;23.67;;
23155;SDS011;11746;50.876;4.246;2022-11-20T07:28:47;48.97;;;23.83;;
23155;SDS011;11746;50.876;4.246;2022-11-20T07:31:13;49.78;;;23.63;;
23155;SDS011;11746;50.876;4.246;2022-11-20T07:33:38;46.03;;;22.30;;
23155;SDS011;11746;50.876;4.246;2022-11-20T07:36:06;52.90;;;24.50;;
23155;SDS011;11746;50.876;4.246;2022-11-20T07:38:32;46.97;;;22.73;;
23155;SDS011;11746;50.876;4.246;2022-11-20T07:40:58;42.03;;;22.02;;
23155;SDS011;11746;50.876;4.246;2022-11-20T07:43:26;47.72;;;24.10;;
23155;SDS011;11746;50.876;4.246;2022-11-20T07:45:56;50.80;;;24.13;;
23155;SDS011;11746;50.876;4.246;2022-11-20T07:48:23;51.17;;;23.15;;
23155;SDS011;11746;50.876;4.246;2022-11-20T07:50:49;49.83;;;23.15;;
23155;SDS011;11746;50.876;4.246;2022-11-20T07:53:18;52.85;;;23.65;;
23155;SDS011;11746;50.876;4.246;2022-11-20T07:55:45;50.92;;;23.98;;
23155;SDS011;11746;50.876;4.246;2022-11-20T07:58:12;46.60;;;22.23;;
23155;SDS011;11746;50.876;4.246;2022-11-20T08:00:40;50.92;;;24.30;;
23155;SDS011;11746;50.876;4.246;2022-11-20T08:03:06;56.83;;;25.88;;
23155;SDS011;11746;50.876;4.246;2022-11-20T08:05:34;97.88;;;51.42;;
23155;SDS011;11746;50.876;4.246;2022-11-20T08:08:02;63.55;;;30.77;;
23155;SDS011;11746;50.876;4.246;2022-11-20T08:10:28;61.33;;;28.65;;
23155;SDS011;11746;50.876;4.246;2022-11-20T08:12:54;60.67;;;28.05;;
23155;SDS011;11746;50.876;4.246;2022-11-20T08:15:39;87.30;;;42.20;;
23155;SDS011;11746;50.876;4.246;2022-11-20T08:18:09;63.17;;;31.90;;
23155;SDS011;11746;50.876;4.246;2022-11-20T08:20:38;57.70;;;23.58;;
23155;SDS011;11746;50.876;4.246;2022-11-20T08:23:07;51.80;;;23.65;;
23155;SDS011;11746;50.876;4.246;2022-11-20T08:25:35;54.00;;;24.10;;
23155;SDS011;11746;50.876;4.246;2022-11-20T08:28:11;53.35;;;24.48;;
23155;SDS011;11746;50.876;4.246;2022-11-20T08:30:39;65.57;;;27.25;;
23155;SDS011;11746;50.876;4.246;2022-11-20T08:33:06;118.65;;;51.95;;
23155;SDS011;11746;50.876;4.246;2022-11-20T08:35:33;109.00;;;51.20;;
23155;SDS011;11746;50.876;4.246;2022-11-20T08:38:03;107.70;;;51.40;;
23155;SDS011;11746;50.876;4.246;2022-11-20T08:40:30;132.20;;;65.78;;
23155;SDS011;11746;50.876;4.246;2022-11-20T08:42:56;67.22;;;33.42;;
23155;SDS011;11746;50.876;4.246;2022-11-20T08:45:23;82.07;;;36.00;;
23155;SDS011;11746;50.876;4.246;2022-11-20T08:47:51;73.60;;;36.45;;
23155;SDS011;11746;50.876;4.246;2022-11-20T08:50:17;56.10;;;24.48;;
23155;SDS011;11746;50.876;4.246;2022-11-20T08:52:43;59.00;;;28.33;;
23155;SDS011;11746;50.876;4.246;2022-11-20T08:55:12;56.70;;;25.98;;
23155;SDS011;11746;50.876;4.246;2022-11-20T08:57:38;59.78;;;25.95;;
23155;SDS011;11746;50.876;4.246;2022-11-20T09:00:04;50.50;;;22.67;;
23155;SDS011;11746;50.876;4.246;2022-11-20T09:02:34;51.72;;;22.48;;
23155;SDS011;11746;50.876;4.246;2022-11-20T09:05:00;56.47;;;23.63;;
23155;SDS011;11746;50.876;4.246;2022-11-20T09:07:28;55.85;;;24.20;;
23155;SDS011;11746;50.876;4.246;2022-11-20T09:09:55;53.60;;;22.27;;
23155;SDS011;11746;50.876;4.246;2022-11-20T09:12:26;47.92;;;22.73;;
23155;SDS011;11746;50.876;4.246;2022-11-20T09:14:52;55.15;;;22.20;;
23155;SDS011;11746;50.876;4.246;2022-11-20T09:17:18;46.63;;;22.58;;
23155;SDS011;11746;50.876;4.246;2022-11-20T09:19:47;47.15;;;22.98;;
23155;SDS011;11746;50.876;4.246;2022-11-20T09:22:13;53.38;;;25.05;;
23155;SDS011;11746;50.876;4.246;2022-11-20T09:24:41;52.90;;;26.05;;
23155;SDS011;11746;50.876;4.246;2022-11-20T09:27:07;46.90;;;24.95;;
23155;SDS011;11746;50.876;4.246;2022-11-20T09:29:33;53.65;;;28.02;;
23155;SDS011;11746;50.876;4.246;2022-11-20T09:31:59;57.92;;;36.35;;
23155;SDS011;11746;50.876;4.246;2022-11-20T09:34:25;46.97;;;21.85;;
23155;SDS011;11746;50.876;4.246;2022-11-20T09:36:53;44.83;;;21.85;;
23155;SDS011;11746;50.876;4.246;2022-11-20T09:39:19;67.18;;;36.35;;
23155;SDS011;11746;50.876;4.246;2022-11-20T09:44:48;69.90;;;39.47;;
23155;SDS011;11746;50.876;4.246;2022-11-20T09:53:16;44.00;;;23.48;;
23155;SDS011;11746;50.876;4.246;2022-11-20T09:56:00;39.45;;;19.83;;
23155;SDS011;11746;50.876;4.246;2022-11-20T09:58:29;43.05;;;24.08;;
23155;SDS011;11746;50.876;4.246;2022-11-20T10:01:29;41.80;;;25.30;;
23155;SDS011;11746;50.876;4.246;2022-11-20T10:04:04;38.15;;;21.45;;
23155;SDS011;11746;50.876;4.246;2022-11-20T10:06:44;36.88;;;23.17;;
23155;SDS011;11746;50.876;4.246;2022-11-20T10:09:27;36.97;;;20.65;;
23155;SDS011;11746;50.876;4.246;2022-11-20T10:14:47;36.10;;;23.20;;
23155;SDS011;11746;50.876;4.246;2022-11-20T10:22:45;35.45;;;18.63;;
23155;SDS011;11746;50.876;4.246;2022-11-20T10:25:36;27.45;;;15.77;;
23155;SDS011;11746;50.876;4.246;2022-11-20T10:31:45;22.52;;;10.32;;
23155;SDS011;11746;50.876;4.246;2022-11-20T10:34:22;17.42;;;9.52;;
23155;SDS011;11746;50.876;4.246;2022-11-20T10:36:58;14.07;;;8.73;;
23155;SDS011;11746;50.876;4.246;2022-11-20T10:39:39;15.77;;;8.63;;
23155;SDS011;11746;50.876;4.246;2022-11-20T10:42:17;10.63;;;6.25;;
23155;SDS011;11746;50.876;4.246;2022-11-20T10:50:37;18.27;;;10.00;;
23155;SDS011;11746;50.876;4.246;2022-11-20T10:55:52;10.25;;;5.68;;
23155;SDS011;11746;50.876;4.246;2022-11-20T10:58:45;11.57;;;5.57;;
23155;SDS011;11746;50.876;4.246;2022-11-20T11:01:25;11.68;;;4.93;;
23155;SDS011;11746;50.876;4.246;2022-11-20T11:03:52;7.80;;;5.03;;
23155;SDS011;11746;50.876;4.246;2022-11-20T11:09:12;10.38;;;5.03;;
23155;SDS011;11746;50.876;4.246;2022-11-20T11:11:43;13.13;;;5.57;;
23155;SDS011;11746;50.876;4.246;2022-11-20T11:14:13;8.02;;;4.05;;
23155;SDS011;11746;50.876;4.246;2022-11-20T11:16:52;9.07;;;3.88;;
23155;SDS011;11746;50.876;4.246;2022-11-20T11:19:23;7.93;;;3.75;;
23155;SDS011;11746;50.876;4.246;2022-11-20T11:21:52;7.35;;;3.28;;
23155;SDS011;11746;50.876;4.246;2022-11-20T11:24:26;10.40;;;3.83;;
23155;SDS011;11746;50.876;4.246;2022-11-20T11:26:56;8.82;;;3.75;;
23155;SDS011;11746;50.876;4.246;2022-11-20T11:29:23;8.07;;;3.50;;
23155;SDS011;11746;50.876;4.246;2022-11-20T11:31:51;10.45;;;3.08;;
23155;SDS011;11746;50.876;4.246;2022-11-20T11:34:38;8.70;;;3.83;;
23155;SDS011;11746;50.876;4.246;2022-11-20T11:37:04;7.63;;;3.00;;
23155;SDS011;11746;50.876;4.246;2022-11-20T11:39:37;7.78;;;3.00;;
23155;SDS011;11746;50.876;4.246;2022-11-20T11:42:12;15.77;;;7.07;;
23155;SDS011;11746;50.876;4.246;2022-11-20T11:44:44;15.82;;;7.38;;
23155;SDS011;11746;50.876;4.246;2022-11-20T11:47:36;22.20;;;10.57;;
23155;SDS011;11746;50.876;4.246;2022-11-20T12:03:55;7.68;;;4.53;;
23155;SDS011;11746;50.876;4.246;2022-11-20T12:06:33;9.75;;;4.75;;
23155;SDS011;11746;50.876;4.246;2022-11-20T12:09:04;10.90;;;5.10;;
23155;SDS011;11746;50.876;4.246;2022-11-20T12:14:36;17.30;;;7.95;;
23155;SDS011;11746;50.876;4.246;2022-11-20T12:17:04;16.13;;;6.47;;
23155;SDS011;11746;50.876;4.246;2022-11-20T12:19:34;10.65;;;4.97;;
23155;SDS011;11746;50.876;4.246;2022-11-20T12:32:39;11.15;;;6.22;;
23155;SDS011;11746;50.876;4.246;2022-11-20T12:35:34;13.35;;;4.45;;
23155;SDS011;11746;50.876;4.246;2022-11-20T12:38:16;11.55;;;5.53;;
23155;SDS011;11746;50.876;4.246;2022-11-20T12:41:00;10.23;;;4.25;;
23155;SDS011;11746;50.876;4.246;2022-11-20T12:44:20;13.00;;;4.82;;
23155;SDS011;11746;50.876;4.246;2022-11-20T12:47:33;10.57;;;4.05;;
23155;SDS011;11746;50.876;4.246;2022-11-20T13:06:51;9.65;;;5.13;;
23155;SDS011;11746;50.876;4.246;2022-11-20T13:09:18;7.10;;;3.00;;
23155;SDS011;11746;50.876;4.246;2022-11-20T13:11:49;5.90;;;3.15;;
23155;SDS011;11746;50.876;4.246;2022-11-20T13:14:42;9.60;;;3.22;;
23155;SDS011;11746;50.876;4.246;2022-11-20T13:19:39;7.60;;;3.75;;
23155;SDS011;11746;50.876;4.246;2022-11-20T13:22:08;9.07;;;6.25;;
23155;SDS011;11746;50.876;4.246;2022-11-20T13:24:34;7.57;;;4.07;;
23155;SDS011;11746;50.876;4.246;2022-11-20T13:29:37;5.57;;;3.55;;
23155;SDS011;11746;50.876;4.246;2022-11-20T13:32:14;7.85;;;3.50;;
23155;SDS011;11746;50.876;4.246;2022-11-20T13:34:52;7.47;;;4.28;;
23155;SDS011;11746;50.876;4.246;2022-11-20T13:37:29;7.63;;;2.97;;
23155;SDS011;11746;50.876;4.246;2022-11-20T13:43:21;4.88;;;2.70;;
23155;SDS011;11746;50.876;4.246;2022-11-20T13:45:30;5.93;;;3.08;;
23155;SDS011;11746;50.876;4.246;2022-11-20T13:48:18;4.47;;;2.95;;
23155;SDS011;11746;50.876;4.246;2022-11-20T13:50:59;4.93;;;2.53;;
23155;SDS011;11746;50.876;4.246;2022-11-20T13:59:02;5.95;;;2.85;;
23155;SDS011;11746;50.876;4.246;2022-11-20T14:01:38;3.70;;;2.58;;
23155;SDS011;11746;50.876;4.246;2022-11-20T14:04:08;5.22;;;2.88;;
23155;SDS011;11746;50.876;4.246;2022-11-20T14:06:41;4.70;;;2.60;;
23155;SDS011;11746;50.876;4.246;2022-11-20T14:09:13;4.78;;;2.65;;
23155;SDS011;11746;50.876;4.246;2022-11-20T14:11:56;3.20;;;2.50;;
23155;SDS011;11746;50.876;4.246;2022-11-20T14:14:23;3.20;;;2.60;;
23155;SDS011;11746;50.876;4.246;2022-11-20T14:17:07;2.78;;;2.22;;
23155;SDS011;11746;50.876;4.246;2022-11-20T14:19:53;4.03;;;2.40;;
23155;SDS011;11746;50.876;4.246;2022-11-20T14:22:22;2.65;;;2.10;;
23155;SDS011;11746;50.876;4.246;2022-11-20T14:25:04;3.05;;;2.20;;
23155;SDS011;11746;50.876;4.246;2022-11-20T14:27:37;4.28;;;2.08;;
23155;SDS011;11746;50.876;4.246;2022-11-20T14:30:16;4.88;;;1.80;;
23155;SDS011;11746;50.876;4.246;2022-11-20T14:32:45;2.10;;;1.70;;
23155;SDS011;11746;50.876;4.246;2022-11-20T14:35:14;9.00;;;2.03;;
23155;SDS011;11746;50.876;4.246;2022-11-20T14:37:48;4.95;;;2.88;;
23155;SDS011;11746;50.876;4.246;2022-11-20T14:43:15;4.20;;;2.10;;
23155;SDS011;11746;50.876;4.246;2022-11-20T14:45:58;2.60;;;1.80;;
23155;SDS011;11746;50.876;4.246;2022-11-20T14:48:28;4.22;;;1.70;;
23155;SDS011;11746;50.876;4.246;2022-11-20T14:50:57;5.28;;;2.65;;
23155;SDS011;11746;50.876;4.246;2022-11-20T14:53:25;4.03;;;2.03;;
23155;SDS011;11746;50.876;4.246;2022-11-20T14:55:56;6.10;;;2.80;;
23155;SDS011;11746;50.876;4.246;2022-11-20T14:58:25;3.65;;;2.88;;
23155;SDS011;11746;50.876;4.246;2022-11-20T15:00:57;4.78;;;2.90;;
23155;SDS011;11746;50.876;4.246;2022-11-20T15:03:38;6.93;;;3.08;;
23155;SDS011;11746;50.876;4.246;2022-11-20T15:06:05;4.97;;;2.90;;
23155;SDS011;11746;50.876;4.246;2022-11-20T15:08:32;4.90;;;3.45;;
23155;SDS011;11746;50.876;4.246;2022-11-20T15:10:59;5.00;;;3.42;;
23155;SDS011;11746;50.876;4.246;2022-11-20T15:13:29;6.55;;;3.45;;
23155;SDS011;11746;50.876;4.246;2022-11-20T15:15:57;5.13;;;3.15;;
23155;SDS011;11746;50.876;4.246;2022-11-20T15:18:32;7.70;;;3.83;;
23155;SDS011;11746;50.876;4.246;2022-11-20T15:21:05;7.72;;;4.10;;
23155;SDS011;11746;50.876;4.246;2022-11-20T15:23:37;5.93;;;4.03;;
23155;SDS011;11746;50.876;4.246;2022-11-20T15:26:07;8.60;;;3.63;;
23155;SDS011;11746;50.876;4.246;2022-11-20T15:28:35;6.32;;;3.88;;
23155;SDS011;11746;50.876;4.246;2022-11-20T15:31:05;7.05;;;3.50;;
23155;SDS011;11746;50.876;4.246;2022-11-20T15:33:31;7.47;;;3.75;;
23155;SDS011;11746;50.876;4.246;2022-11-20T15:35:57;8.15;;;4.05;;
23155;SDS011;11746;50.876;4.246;2022-11-20T15:38:23;9.07;;;3.72;;
23155;SDS011;11746;50.876;4.246;2022-11-20T15:40:49;10.52;;;3.90;;
23155;SDS011;11746;50.876;4.246;2022-11-20T15:43:16;9.75;;;3.90;;
23155;SDS011;11746;50.876;4.246;2022-11-20T15:45:46;9.95;;;3.75;;
23155;SDS011;11746;50.876;4.246;2022-11-20T15:48:25;8.48;;;3.28;;
23155;SDS011;11746;50.876;4.246;2022-11-20T15:53:37;10.45;;;3.53;;
23155;SDS011;11746;50.876;4.246;2022-11-20T15:56:07;16.58;;;3.63;;
23155;SDS011;11746;50.876;4.246;2022-11-20T15:58:37;10.27;;;3.28;;
23155;SDS011;11746;50.876;4.246;2022-11-20T16:01:02;11.27;;;3.25;;
23155;SDS011;11746;50.876;4.246;2022-11-20T16:03:30;11.90;;;3.22;;
23155;SDS011;11746;50.876;4.246;2022-11-20T16:05:56;7.60;;;2.38;;
23155;SDS011;11746;50.876;4.246;2022-11-20T16:08:21;9.05;;;2.45;;
23155;SDS011;11746;50.876;4.246;2022-11-20T16:10:47;15.07;;;2.90;;
23155;SDS011;11746;50.876;4.246;2022-11-20T16:13:14;11.73;;;2.63;;
23155;SDS011;11746;50.876;4.246;2022-11-20T16:16:01;11.10;;;2.88;;
23155;SDS011;11746;50.876;4.246;2022-11-20T16:18:30;17.75;;;2.75;;
23155;SDS011;11746;50.876;4.246;2022-11-20T16:20:58;17.33;;;3.72;;
23155;SDS011;11746;50.876;4.246;2022-11-20T16:23:24;16.38;;;2.97;;
23155;SDS011;11746;50.876;4.246;2022-11-20T16:25:50;11.80;;;2.55;;
23155;SDS011;11746;50.876;4.246;2022-11-20T16:28:18;15.07;;;2.45;;
23155;SDS011;11746;50.876;4.246;2022-11-20T16:30:47;17.38;;;3.03;;